createdAt,value
2023-03-26T00:01:38.182Z,94.30
2023-03-26T00:04:06.679Z,94.73
2023-03-26T00:06:37.587Z,94.17
2023-03-26T00:09:06.651Z,94.85
2023-03-26T00:11:33.529Z,94.44
2023-03-26T00:14:00.176Z,94.78
2023-03-26T00:16:29.858Z,94.56
2023-03-26T00:18:57.746Z,94.40
2023-03-26T00:21:28.808Z,94.73
2023-03-26T00:23:58.432Z,94.47
2023-03-26T00:26:24.964Z,94.32
2023-03-26T00:28:51.576Z,94.77
2023-03-26T00:31:18.156Z,95.08
2023-03-26T00:33:44.751Z,94.95
2023-03-26T00:36:17.524Z,94.93
2023-03-26T00:38:46.168Z,94.97
2023-03-26T00:41:22.825Z,94.80
2023-03-26T00:43:56.218Z,95.06
2023-03-26T00:46:26.637Z,94.70
2023-03-26T00:48:53.561Z,94.88
2023-03-26T00:51:21.206Z,94.78
2023-03-26T00:53:57.745Z,95.02
2023-03-26T00:56:24.933Z,94.75
2023-03-26T00:58:51.462Z,94.50
2023-03-26T01:01:27.511Z,94.91
2023-03-26T01:04:08.271Z,95.15
2023-03-26T01:06:38.898Z,94.98
2023-03-26T01:09:14.319Z,95.26
2023-03-26T01:11:40.700Z,95.18
2023-03-26T01:14:11.574Z,94.99
2023-03-26T01:16:49.794Z,94.99
2023-03-26T01:19:33.931Z,95.73
2023-03-26T01:22:02.672Z,95.43
2023-03-26T01:24:29.182Z,95.41
2023-03-26T01:27:13.538Z,95.22
2023-03-26T01:29:49.147Z,95.43
2023-03-26T01:32:47.495Z,95.26
2023-03-26T01:35:57.523Z,95.37
2023-03-26T01:38:40.625Z,95.75
2023-03-26T01:41:23.087Z,95.54
2023-03-26T01:44:08.779Z,95.73
2023-03-26T01:46:38.037Z,95.67
2023-03-26T01:49:05.428Z,95.63
2023-03-26T01:51:35.476Z,96.03
2023-03-26T01:54:05.521Z,96.28
2023-03-26T01:56:46.472Z,95.58
2023-03-26T01:59:25.284Z,95.66
2023-03-26T02:02:07.417Z,95.79
2023-03-26T02:05:03.841Z,96.05
2023-03-26T02:07:45.688Z,95.91
2023-03-26T02:10:35.572Z,96.17
2023-03-26T02:13:02.654Z,95.65
2023-03-26T02:15:29.085Z,95.86
2023-03-26T02:17:55.484Z,95.88
2023-03-26T02:20:22.157Z,95.53
2023-03-26T02:22:48.607Z,95.85
2023-03-26T02:25:17.773Z,95.84
2023-03-26T02:27:49.596Z,95.63
2023-03-26T02:30:25.984Z,95.88
2023-03-26T02:32:54.230Z,95.95
2023-03-26T02:35:22.230Z,95.83
2023-03-26T02:37:50.865Z,95.97
2023-03-26T02:40:21.063Z,96.33
2023-03-26T02:42:47.488Z,96.55
2023-03-26T02:45:14.363Z,95.78
2023-03-26T02:47:40.756Z,96.12
2023-03-26T02:50:08.964Z,96.48
2023-03-26T02:52:37.400Z,96.02
2023-03-26T02:55:03.853Z,96.33
2023-03-26T02:57:31.170Z,96.48
2023-03-26T02:59:57.831Z,96.55
2023-03-26T03:02:24.334Z,96.59
2023-03-26T03:04:51.919Z,96.64
2023-03-26T03:07:18.297Z,96.51
2023-03-26T03:09:44.692Z,96.57
2023-03-26T03:12:11.165Z,96.30
2023-03-26T03:14:37.754Z,97.00
2023-03-26T03:17:04.223Z,96.73
2023-03-26T03:19:31.683Z,96.42
2023-03-26T03:21:58.074Z,96.93
2023-03-26T03:24:24.512Z,97.42
2023-03-26T03:26:56.803Z,97.19
2023-03-26T03:29:23.860Z,97.25
2023-03-26T03:31:50.505Z,97.14
2023-03-26T03:34:16.921Z,97.27
2023-03-26T03:36:43.287Z,97.37
2023-03-26T03:39:09.673Z,97.61
2023-03-26T03:41:36.044Z,97.85
2023-03-26T03:44:02.407Z,97.50
2023-03-26T03:46:28.887Z,97.24
2023-03-26T03:48:55.981Z,97.22
2023-03-26T03:51:22.340Z,97.34
2023-03-26T03:53:50.790Z,97.21
2023-03-26T03:56:19.304Z,97.33
2023-03-26T03:58:46.300Z,97.14
2023-03-26T04:01:13.500Z,96.74
2023-03-26T04:03:41.084Z,97.17
2023-03-26T04:06:11.071Z,96.78
2023-03-26T04:08:37.975Z,96.83
2023-03-26T04:11:04.817Z,96.70
2023-03-26T04:13:31.201Z,97.00
2023-03-26T04:15:57.983Z,97.03
2023-03-26T04:18:26.242Z,96.67
2023-03-26T04:20:54.590Z,97.16
2023-03-26T04:23:22.486Z,96.92
2023-03-26T04:25:53.812Z,96.57
2023-03-26T04:28:42.760Z,97.12
2023-03-26T04:31:15.784Z,96.69
2023-03-26T04:33:48.590Z,97.08
2023-03-26T04:36:17.840Z,96.87
2023-03-26T04:38:46.463Z,96.72
2023-03-26T04:41:13.840Z,96.71
2023-03-26T04:43:47.426Z,96.55
2023-03-26T04:46:14.583Z,96.37
2023-03-26T04:48:41.044Z,96.72
2023-03-26T04:51:07.588Z,97.15
2023-03-26T04:53:35.334Z,96.79
2023-03-26T04:56:17.049Z,96.69
2023-03-26T04:58:43.533Z,96.95
2023-03-26T05:01:11.118Z,96.82
2023-03-26T05:03:40.689Z,96.90
2023-03-26T05:06:07.571Z,96.82
2023-03-26T05:08:35.234Z,96.76
2023-03-26T05:11:01.624Z,96.49
2023-03-26T05:13:28.077Z,96.50
2023-03-26T05:15:55.604Z,96.87
2023-03-26T05:18:21.971Z,96.24
2023-03-26T05:20:56.005Z,96.65
2023-03-26T05:23:22.620Z,95.96
2023-03-26T05:25:49.053Z,96.40
2023-03-26T05:28:15.445Z,96.51
2023-03-26T05:30:43.470Z,96.36
2023-03-26T05:33:10.669Z,96.65
2023-03-26T05:35:43.417Z,96.48
2023-03-26T05:38:09.863Z,96.55
2023-03-26T05:40:36.626Z,95.82
2023-03-26T05:43:03.384Z,96.54
2023-03-26T05:45:30.214Z,96.96
2023-03-26T05:47:56.702Z,96.79
2023-03-26T05:50:24.236Z,96.75
2023-03-26T05:52:50.978Z,96.29
2023-03-26T05:55:18.430Z,96.38
2023-03-26T05:57:44.837Z,96.32
2023-03-26T06:00:12.106Z,96.50
2023-03-26T06:02:39.104Z,95.81
2023-03-26T06:05:05.815Z,96.13
2023-03-26T06:07:34.013Z,96.14
2023-03-26T06:10:00.893Z,96.01
2023-03-26T06:12:27.261Z,95.98
2023-03-26T06:14:56.740Z,96.18
2023-03-26T06:17:24.388Z,96.23
2023-03-26T06:19:50.770Z,96.14
2023-03-26T06:22:18.182Z,96.75
2023-03-26T06:24:45.781Z,96.00
2023-03-26T06:27:12.158Z,96.12
2023-03-26T06:29:38.658Z,96.27
2023-03-26T06:32:18.495Z,96.04
2023-03-26T06:34:46.336Z,96.64
2023-03-26T06:37:12.716Z,96.70
2023-03-26T06:39:39.088Z,96.58
2023-03-26T06:42:05.551Z,96.64
2023-03-26T06:44:32.004Z,96.32
2023-03-26T06:46:58.475Z,96.04
2023-03-26T06:49:26.070Z,96.40
2023-03-26T06:51:52.461Z,95.58
2023-03-26T06:54:18.814Z,95.73
2023-03-26T06:56:45.384Z,95.54
2023-03-26T06:59:11.738Z,95.84
2023-03-26T07:01:38.280Z,96.32
2023-03-26T07:04:04.928Z,95.88
2023-03-26T07:06:33.442Z,95.64
2023-03-26T07:08:59.800Z,96.14
2023-03-26T07:11:27.005Z,95.81
2023-03-26T07:13:56.157Z,96.31
2023-03-26T07:16:22.745Z,96.09
2023-03-26T07:18:49.409Z,95.85
2023-03-26T07:21:17.361Z,95.98
2023-03-26T07:23:45.124Z,96.05
2023-03-26T07:26:41.506Z,96.28
2023-03-26T07:29:24.016Z,96.19
2023-03-26T07:32:05.616Z,96.01
2023-03-26T07:34:38.436Z,96.18
2023-03-26T07:37:12.970Z,95.90
2023-03-26T07:39:52.184Z,95.72
2023-03-26T07:42:38.320Z,95.98
2023-03-26T07:45:24.098Z,95.76
2023-03-26T07:47:53.448Z,95.66
2023-03-26T07:50:22.758Z,95.74
2023-03-26T07:52:49.704Z,95.51
2023-03-26T07:55:16.978Z,95.79
2023-03-26T07:57:45.412Z,95.99
2023-03-26T08:00:22.088Z,95.29
2023-03-26T08:03:19.613Z,95.64
2023-03-26T08:06:10.889Z,95.60
2023-03-26T08:08:48.921Z,95.69
2023-03-26T08:11:35.374Z,95.18
2023-03-26T08:14:21.668Z,95.30
2023-03-26T08:17:16.639Z,94.88
2023-03-26T08:19:51.000Z,95.16
2023-03-26T08:22:27.357Z,94.73
2023-03-26T08:25:47.058Z,94.32
2023-03-26T08:28:26.610Z,94.24
2023-03-26T08:30:55.163Z,94.55
2023-03-26T08:33:25.847Z,94.66
2023-03-26T08:35:52.288Z,94.63
2023-03-26T08:38:20.575Z,94.97
2023-03-26T08:41:11.526Z,94.20
2023-03-26T08:44:11.001Z,94.47
2023-03-26T08:46:49.180Z,94.42
2023-03-26T08:49:46.445Z,94.63
2023-03-26T08:52:33.392Z,94.39
2023-03-26T08:55:27.642Z,94.68
2023-03-26T08:58:25.198Z,94.78
2023-03-26T09:01:06.518Z,94.65
2023-03-26T09:04:14.256Z,94.68
2023-03-26T09:07:09.695Z,94.43
2023-03-26T09:10:11.776Z,94.37
2023-03-26T09:13:06.526Z,94.72
2023-03-26T09:15:32.819Z,94.62
2023-03-26T09:18:48.692Z,94.27
2023-03-26T09:21:25.520Z,94.14
2023-03-26T09:24:14.090Z,94.29
2023-03-26T09:27:11.039Z,94.31
2023-03-26T09:30:01.346Z,93.95
2023-03-26T09:32:58.328Z,94.05
2023-03-26T09:35:27.463Z,94.01
2023-03-26T09:38:11.256Z,94.59
2023-03-26T09:40:54.139Z,94.22
2023-03-26T09:43:42.118Z,94.36
2023-03-26T09:46:28.967Z,93.93
2023-03-26T09:49:34.429Z,93.91
2023-03-26T09:52:32.270Z,94.53
2023-03-26T09:55:19.569Z,93.79
2023-03-26T09:58:10.743Z,93.99
2023-03-26T10:01:01.298Z,93.80
2023-03-26T10:03:47.459Z,93.55
2023-03-26T10:06:16.637Z,93.40
2023-03-26T10:09:15.229Z,93.84
2023-03-26T10:11:58.044Z,92.90
2023-03-26T10:14:36.623Z,93.61
2023-03-26T10:17:20.168Z,93.14
2023-03-26T10:20:21.460Z,93.33
2023-03-26T10:23:27.034Z,93.16
2023-03-26T10:26:19.878Z,93.37
2023-03-26T10:29:18.917Z,93.09
2023-03-26T10:32:20.587Z,93.53
2023-03-26T10:35:19.466Z,92.88
2023-03-26T10:38:08.643Z,93.30
2023-03-26T10:40:54.211Z,93.00
2023-03-26T10:44:01.230Z,92.78
2023-03-26T10:46:52.665Z,93.38
2023-03-26T10:49:49.894Z,93.29
2023-03-26T10:52:22.304Z,93.79
2023-03-26T10:54:55.037Z,93.37
2023-03-26T10:57:38.785Z,93.61
2023-03-26T11:00:26.445Z,93.42
2023-03-26T11:03:16.068Z,93.62
2023-03-26T11:06:06.228Z,93.47
2023-03-26T11:08:40.959Z,93.17
2023-03-26T11:11:27.982Z,92.96
2023-03-26T11:14:31.866Z,92.86
2023-03-26T11:17:40.942Z,92.75
2023-03-26T11:20:09.743Z,93.24
2023-03-26T11:22:52.374Z,92.82
2023-03-26T11:25:37.289Z,92.29
2023-03-26T11:28:09.169Z,92.33
2023-03-26T11:30:53.165Z,92.67
2023-03-26T11:33:24.374Z,92.47
2023-03-26T11:35:55.225Z,92.73
2023-03-26T11:38:41.892Z,92.19
2023-03-26T11:41:15.849Z,91.47
2023-03-26T11:44:24.596Z,91.48
2023-03-26T11:46:58.788Z,90.47
2023-03-26T11:49:26.281Z,90.88
2023-03-26T11:51:52.710Z,90.14
2023-03-26T11:54:21.011Z,90.35
2023-03-26T11:57:04.438Z,90.08
2023-03-26T11:59:59.396Z,90.32
2023-03-26T12:02:32.290Z,90.43
2023-03-26T12:05:26.691Z,92.09
2023-03-26T12:08:02.108Z,91.83
2023-03-26T12:10:37.818Z,91.91
2023-03-26T12:13:35.555Z,91.96
2023-03-26T12:16:13.157Z,91.77
2023-03-26T12:18:41.656Z,92.11
2023-03-26T12:21:12.623Z,92.05
2023-03-26T12:24:04.699Z,92.16
2023-03-26T12:26:35.770Z,92.33
2023-03-26T12:29:11.442Z,91.67
2023-03-26T12:32:01.873Z,91.24
2023-03-26T12:34:35.451Z,89.61
2023-03-26T12:37:03.604Z,89.31
2023-03-26T12:40:07.369Z,87.92
2023-03-26T12:44:44.293Z,87.19
2023-03-26T12:45:22.528Z,87.38
2023-03-26T12:48:00.800Z,87.29
2023-03-26T12:51:05.017Z,87.19
2023-03-26T12:53:42.886Z,86.34
2023-03-26T12:56:19.856Z,85.84
2023-03-26T12:59:01.549Z,85.24
2023-03-26T13:01:35.442Z,84.34
2023-03-26T13:04:36.143Z,84.27
2023-03-26T13:07:45.755Z,84.56
2023-03-26T13:10:29.229Z,84.17
2023-03-26T13:13:33.699Z,84.51
2023-03-26T13:16:14.770Z,83.12
2023-03-26T13:19:07.166Z,82.64
2023-03-26T13:22:09.116Z,82.84
2023-03-26T13:24:56.394Z,81.45
2023-03-26T13:27:36.762Z,81.43
2023-03-26T13:30:48.355Z,80.90
2023-03-26T13:33:38.401Z,80.09
2023-03-26T13:36:26.620Z,79.63
2023-03-26T13:39:24.824Z,80.58
2023-03-26T13:42:15.731Z,80.55
2023-03-26T13:45:04.994Z,80.07
2023-03-26T13:47:41.030Z,78.97
2023-03-26T13:50:14.699Z,77.98
2023-03-26T13:52:49.046Z,78.25
2023-03-26T13:55:43.771Z,76.77
2023-03-26T13:58:36.727Z,76.98
2023-03-26T14:01:23.285Z,77.42
2023-03-26T14:04:08.397Z,77.96
2023-03-26T14:06:57.873Z,77.12
2023-03-26T14:09:31.911Z,77.38
2023-03-26T14:12:03.945Z,77.04
2023-03-26T14:14:46.423Z,76.28
2023-03-26T14:17:22.281Z,77.29
2023-03-26T14:20:25.175Z,77.08
2023-03-26T14:23:16.579Z,76.02
2023-03-26T14:26:19.103Z,76.11
2023-03-26T14:29:07.665Z,75.94
2023-03-26T14:31:54.792Z,75.57
2023-03-26T14:34:38.235Z,76.07
2023-03-26T14:37:32.951Z,75.34
2023-03-26T14:40:33.490Z,75.51
2023-03-26T14:43:38.937Z,74.79
2023-03-26T14:46:29.674Z,74.63
2023-03-26T14:49:02.190Z,73.87
2023-03-26T14:51:52.571Z,73.69
2023-03-26T14:54:24.863Z,72.82
2023-03-26T14:57:06.150Z,74.30
2023-03-26T15:00:07.215Z,73.93
2023-03-26T15:03:07.949Z,73.77
2023-03-26T15:05:59.500Z,73.27
2023-03-26T15:09:11.142Z,73.03
2023-03-26T15:12:13.185Z,72.98
2023-03-26T15:14:39.914Z,72.11
2023-03-26T15:17:41.649Z,71.91
2023-03-26T15:20:20.297Z,72.07
2023-03-26T15:23:14.502Z,72.73
2023-03-26T15:25:46.785Z,71.59
2023-03-26T15:28:51.350Z,71.69
2023-03-26T15:31:55.715Z,71.45
2023-03-26T15:34:59.941Z,70.85
2023-03-26T15:38:03.942Z,70.92
2023-03-26T15:41:19.548Z,71.62
2023-03-26T15:47:05.749Z,71.29
2023-03-26T15:49:50.044Z,70.41
2023-03-26T15:52:19.348Z,70.17
2023-03-26T15:54:55.794Z,70.31
2023-03-26T15:57:40.993Z,69.46
2023-03-26T16:00:22.999Z,68.71
2023-03-26T16:03:17.788Z,68.71
2023-03-26T16:05:57.293Z,69.50
2023-03-26T16:08:39.122Z,68.48
2023-03-26T16:11:12.411Z,68.44
2023-03-26T16:13:39.246Z,68.93
2023-03-26T16:16:14.867Z,68.80
2023-03-26T16:18:57.167Z,68.79
2023-03-26T16:21:39.439Z,67.94
2023-03-26T16:24:05.782Z,67.30
2023-03-26T16:26:44.430Z,68.20
2023-03-26T16:29:18.065Z,68.12
2023-03-26T16:32:18.874Z,68.57
2023-03-26T16:34:59.445Z,68.83
2023-03-26T16:37:37.977Z,68.28
2023-03-26T16:40:16.843Z,66.87
2023-03-26T16:43:05.196Z,67.39
2023-03-26T16:45:44.091Z,67.55
2023-03-26T16:48:22.725Z,67.33
2023-03-26T16:51:04.753Z,67.29
2023-03-26T16:53:42.726Z,67.07
2023-03-26T16:56:16.770Z,67.28
2023-03-26T16:59:00.412Z,67.16
2023-03-26T17:01:42.900Z,66.29
2023-03-26T17:04:23.234Z,66.60
2023-03-26T17:07:28.627Z,66.66
2023-03-26T17:10:21.835Z,66.70
2023-03-26T17:13:01.422Z,66.14
2023-03-26T17:15:58.932Z,66.32
2023-03-26T17:18:46.876Z,65.39
2023-03-26T17:21:47.123Z,63.95
2023-03-26T17:24:40.690Z,63.38
2023-03-26T17:27:26.543Z,64.00
2023-03-26T17:30:07.444Z,64.89
2023-03-26T17:32:54.045Z,64.41
2023-03-26T17:35:36.485Z,64.95
2023-03-26T17:38:03.895Z,64.72
2023-03-26T17:40:45.029Z,64.41
2023-03-26T17:43:31.791Z,64.74
2023-03-26T17:46:03.094Z,64.25
2023-03-26T17:48:36.457Z,63.68
2023-03-26T17:51:20.834Z,64.55
2023-03-26T17:53:47.594Z,64.71
2023-03-26T17:56:18.652Z,62.98
2023-03-26T17:58:52.680Z,63.26
2023-03-26T18:01:41.346Z,63.71
2023-03-26T18:04:21.354Z,63.73
2023-03-26T18:07:07.746Z,64.46
2023-03-26T18:09:40.177Z,64.08
2023-03-26T18:12:32.226Z,64.18
2023-03-26T18:15:22.427Z,63.90
2023-03-26T18:17:49.020Z,64.45
2023-03-26T18:20:25.050Z,64.54
2023-03-26T18:22:53.711Z,64.75
2023-03-26T18:25:32.130Z,64.73
2023-03-26T18:28:01.967Z,64.31
2023-03-26T18:30:29.318Z,64.91
2023-03-26T18:33:11.928Z,65.38
2023-03-26T18:35:42.194Z,64.71
2023-03-26T18:38:14.067Z,65.53
2023-03-26T18:40:43.020Z,64.91
2023-03-26T18:43:28.816Z,65.06
2023-03-26T18:46:01.310Z,65.19
2023-03-26T18:48:28.911Z,64.87
2023-03-26T18:51:05.874Z,65.71
2023-03-26T18:53:39.880Z,65.64
2023-03-26T18:56:29.850Z,65.99
2023-03-26T18:58:59.152Z,65.66
2023-03-26T19:01:30.522Z,66.27
2023-03-26T19:04:02.081Z,66.13
2023-03-26T19:06:28.902Z,66.60
2023-03-26T19:08:57.504Z,66.57
2023-03-26T19:11:26.131Z,66.95
2023-03-26T19:14:03.881Z,67.49
2023-03-26T19:16:37.684Z,67.55
2023-03-26T19:19:07.490Z,67.99
2023-03-26T19:21:35.682Z,67.81
2023-03-26T19:24:03.903Z,67.81
2023-03-26T19:26:31.479Z,68.22
2023-03-26T19:28:58.265Z,68.50
2023-03-26T19:31:34.137Z,68.00
2023-03-26T19:34:20.320Z,68.77
2023-03-26T19:37:00.969Z,68.71
2023-03-26T19:39:41.559Z,68.47
2023-03-26T19:42:17.730Z,68.51
2023-03-26T19:44:44.760Z,68.70
2023-03-26T19:47:26.756Z,69.17
2023-03-26T19:50:23.348Z,68.98
2023-03-26T19:53:28.472Z,68.84
2023-03-26T19:55:57.406Z,68.21
2023-03-26T19:58:26.676Z,67.12
2023-03-26T20:00:53.257Z,67.54
2023-03-26T20:03:30.328Z,67.46
2023-03-26T20:05:56.847Z,68.06
2023-03-26T20:08:27.028Z,66.67
2023-03-26T20:10:56.290Z,67.46
2023-03-26T20:13:22.793Z,66.83
2023-03-26T20:16:05.173Z,67.50
2023-03-26T20:18:33.203Z,66.75
2023-03-26T20:20:59.576Z,67.01
2023-03-26T20:23:28.843Z,67.00
2023-03-26T20:25:55.616Z,67.03
2023-03-26T20:28:22.242Z,67.20
2023-03-26T20:30:50.030Z,66.86
2023-03-26T20:33:26.778Z,67.16
2023-03-26T20:35:55.395Z,67.62
2023-03-26T20:38:36.601Z,67.61
2023-03-26T20:41:04.138Z,67.54
2023-03-26T20:43:30.915Z,67.18
2023-03-26T20:45:58.514Z,67.74
2023-03-26T20:48:27.076Z,68.14
2023-03-26T20:50:54.096Z,67.71
2023-03-26T20:53:20.722Z,68.23
2023-03-26T20:55:47.952Z,67.17
2023-03-26T20:58:31.103Z,68.38
2023-03-26T21:01:01.474Z,68.25
2023-03-26T21:03:28.039Z,67.56
2023-03-26T21:05:54.458Z,68.71
2023-03-26T21:08:22.243Z,68.49
2023-03-26T21:10:48.885Z,67.91
2023-03-26T21:13:38.945Z,68.28
2023-03-26T21:16:06.499Z,68.91
2023-03-26T21:18:33.495Z,68.73
2023-03-26T21:21:26.120Z,68.62
2023-03-26T21:24:00.226Z,69.36
2023-03-26T21:26:34.666Z,70.24
2023-03-26T21:29:08.704Z,70.09
2023-03-26T21:31:37.952Z,71.13
2023-03-26T21:34:05.468Z,71.47
2023-03-26T21:36:32.653Z,71.55
2023-03-26T21:38:59.567Z,72.66
2023-03-26T21:41:41.160Z,72.24
2023-03-26T21:44:08.544Z,73.09
2023-03-26T21:46:35.413Z,73.80
2023-03-26T21:49:02.664Z,74.20
2023-03-26T21:51:29.471Z,73.99
2023-03-26T21:53:56.277Z,74.51
2023-03-26T21:56:38.641Z,74.73
2023-03-26T21:59:35.502Z,75.09
2023-03-26T22:02:26.904Z,74.55
2023-03-26T22:05:17.022Z,75.36
2023-03-26T22:07:56.046Z,75.25
2023-03-26T22:10:23.027Z,75.99
2023-03-26T22:12:50.058Z,76.52
2023-03-26T22:15:19.122Z,76.30
2023-03-26T22:17:53.622Z,76.84
2023-03-26T22:20:24.427Z,76.00
2023-03-26T22:22:53.088Z,76.30
2023-03-26T22:25:20.902Z,76.12
2023-03-26T22:27:48.568Z,75.30
2023-03-26T22:30:15.690Z,75.44
2023-03-26T22:32:43.303Z,74.39
2023-03-26T22:35:09.796Z,74.44
2023-03-26T22:37:37.133Z,75.25
2023-03-26T22:40:13.614Z,74.76
2023-03-26T22:42:41.291Z,75.26
2023-03-26T22:45:09.437Z,75.58
2023-03-26T22:47:36.009Z,75.59
2023-03-26T22:50:04.155Z,76.70
2023-03-26T22:52:31.337Z,76.67
2023-03-26T22:54:57.884Z,77.25
2023-03-26T22:57:24.456Z,77.28
2023-03-26T22:59:52.045Z,77.64
2023-03-26T23:02:19.321Z,77.97
2023-03-26T23:04:47.761Z,78.36
2023-03-26T23:07:14.550Z,78.95
2023-03-26T23:09:41.596Z,78.74
2023-03-26T23:12:08.228Z,79.34
2023-03-26T23:14:34.673Z,79.61
2023-03-26T23:17:01.538Z,79.74
2023-03-26T23:19:30.108Z,80.65
2023-03-26T23:21:57.539Z,80.32
2023-03-26T23:24:26.280Z,80.39
2023-03-26T23:26:53.152Z,80.41
2023-03-26T23:29:19.869Z,80.96
2023-03-26T23:31:46.552Z,81.39
2023-03-26T23:34:13.549Z,81.04
2023-03-26T23:36:40.881Z,81.37
2023-03-26T23:39:09.004Z,81.95
2023-03-26T23:41:35.386Z,82.25
2023-03-26T23:44:01.757Z,82.08
2023-03-26T23:46:34.811Z,81.66
2023-03-26T23:49:04.736Z,81.54
2023-03-26T23:51:31.687Z,81.89
2023-03-26T23:53:58.435Z,81.79
2023-03-26T23:56:24.917Z,81.52
2023-03-26T23:58:51.363Z,81.25
